sensor_id;sensor_type;location;lat;lon;timestamp;pressure;altitude;pressure_sealevel;temperature;humidity
63339;BME280;47485;51.378;-1.342;2023-02-01T00:02:14;101167.66;;;-1.78;48.26
63339;BME280;47485;51.378;-1.342;2023-02-01T00:04:41;101165.91;;;-0.73;47.18
63339;BME280;47485;51.378;-1.342;2023-02-01T00:07:08;101162.81;;;-0.22;45.87
63339;BME280;47485;51.378;-1.342;2023-02-01T00:09:34;101156.68;;;-1.83;44.90
63339;BME280;47485;51.378;-1.342;2023-02-01T00:12:02;101157.13;;;-1.16;44.61
63339;BME280;47485;51.378;-1.342;2023-02-01T00:14:29;101153.29;;;-1.83;44.25
63339;BME280;47485;51.378;-1.342;2023-02-01T00:16:57;101150.76;;;-1.01;45.05
63339;BME280;47485;51.378;-1.342;2023-02-01T00:19:25;101156.64;;;-0.21;45.22
63339;BME280;47485;51.378;-1.342;2023-02-01T00:21:51;101161.58;;;-0.67;47.33
63339;BME280;47485;51.378;-1.342;2023-02-01T00:24:19;101161.51;;;-0.46;47.21
63339;BME280;47485;51.378;-1.342;2023-02-01T00:26:46;101164.25;;;-1.73;48.43
63339;BME280;47485;51.378;-1.342;2023-02-01T00:29:16;101154.63;;;0.10;48.94
63339;BME280;47485;51.378;-1.342;2023-02-01T00:31:44;101161.51;;;-0.92;47.47
63339;BME280;47485;51.378;-1.342;2023-02-01T00:34:13;101159.87;;;-1.53;46.07
63339;BME280;47485;51.378;-1.342;2023-02-01T00:36:41;101157.93;;;-1.23;45.32
63339;BME280;47485;51.378;-1.342;2023-02-01T00:39:08;101158.27;;;0.08;45.80
63339;BME280;47485;51.378;-1.342;2023-02-01T00:41:35;101155.02;;;-1.12;46.88
63339;BME280;47485;51.378;-1.342;2023-02-01T00:44:02;101154.77;;;-0.25;46.24
63339;BME280;47485;51.378;-1.342;2023-02-01T00:46:30;101152.83;;;-1.31;48.51
63339;BME280;47485;51.378;-1.342;2023-02-01T00:48:56;101151.81;;;-0.60;48.25
63339;BME280;47485;51.378;-1.342;2023-02-01T00:51:25;101147.02;;;-1.39;47.22
63339;BME280;47485;51.378;-1.342;2023-02-01T00:53:52;101144.81;;;-1.20;46.02
63339;BME280;47485;51.378;-1.342;2023-02-01T00:56:19;101146.67;;;-1.36;47.53
63339;BME280;47485;51.378;-1.342;2023-02-01T00:58:51;101144.30;;;-1.12;46.59
63339;BME280;47485;51.378;-1.342;2023-02-01T01:01:19;101139.50;;;-0.22;45.93
63339;BME280;47485;51.378;-1.342;2023-02-01T01:03:49;101129.30;;;-1.23;44.75
63339;BME280;47485;51.378;-1.342;2023-02-01T01:06:20;101130.00;;;-1.26;47.98
63339;BME280;47485;51.378;-1.342;2023-02-01T01:08:47;101127.62;;;-1.33;47.51
63339;BME280;47485;51.378;-1.342;2023-02-01T01:11:18;101124.37;;;-2.09;46.40
63339;BME280;47485;51.378;-1.342;2023-02-01T01:13:46;101139.02;;;-1.81;46.99
63339;BME280;47485;51.378;-1.342;2023-02-01T01:16:14;101141.99;;;-1.12;46.32
63339;BME280;47485;51.378;-1.342;2023-02-01T01:18:41;101145.61;;;-1.98;48.78
63339;BME280;47485;51.378;-1.342;2023-02-01T01:21:09;101141.89;;;-1.15;46.87
63339;BME280;47485;51.378;-1.342;2023-02-01T01:23:38;101142.14;;;-0.97;46.85
63339;BME280;47485;51.378;-1.342;2023-02-01T01:26:06;101139.71;;;-0.51;46.89
63339;BME280;47485;51.378;-1.342;2023-02-01T01:28:38;101132.49;;;-1.35;46.71
63339;BME280;47485;51.378;-1.342;2023-02-01T01:31:08;101130.51;;;-0.75;44.43
63339;BME280;47485;51.378;-1.342;2023-02-01T01:33:35;101120.09;;;-1.10;44.31
63339;BME280;47485;51.378;-1.342;2023-02-01T01:36:04;101116.42;;;-0.08;44.47
63339;BME280;47485;51.378;-1.342;2023-02-01T01:38:31;101116.09;;;0.28;44.17
63339;BME280;47485;51.378;-1.342;2023-02-01T01:40:58;101117.61;;;-0.47;43.59
63339;BME280;47485;51.378;-1.342;2023-02-01T01:43:25;101119.41;;;-0.91;43.91
63339;BME280;47485;51.378;-1.342;2023-02-01T01:45:51;101125.89;;;-1.29;44.40
63339;BME280;47485;51.378;-1.342;2023-02-01T01:48:22;101125.65;;;-0.92;44.09
63339;BME280;47485;51.378;-1.342;2023-02-01T01:50:55;101128.77;;;-1.38;43.40
63339;BME280;47485;51.378;-1.342;2023-02-01T01:53:26;101130.78;;;0.48;41.14
63339;BME280;47485;51.378;-1.342;2023-02-01T01:55:54;101133.38;;;0.21;41.30
63339;BME280;47485;51.378;-1.342;2023-02-01T01:58:25;101133.23;;;0.64;41.42
63339;BME280;47485;51.378;-1.342;2023-02-01T02:00:53;101124.08;;;2.04;39.13
63339;BME280;47485;51.378;-1.342;2023-02-01T02:03:22;101118.83;;;1.16;38.78
63339;BME280;47485;51.378;-1.342;2023-02-01T02:05:51;101121.88;;;0.78;39.67
63339;BME280;47485;51.378;-1.342;2023-02-01T02:08:19;101120.32;;;0.97;40.76
63339;BME280;47485;51.378;-1.342;2023-02-01T02:10:46;101114.45;;;-0.54;40.61
63339;BME280;47485;51.378;-1.342;2023-02-01T02:13:14;101125.36;;;0.44;42.05
63339;BME280;47485;51.378;-1.342;2023-02-01T02:15:47;101123.79;;;-0.34;43.29
63339;BME280;47485;51.378;-1.342;2023-02-01T02:18:27;101132.10;;;-0.27;42.71
63339;BME280;47485;51.378;-1.342;2023-02-01T02:21:10;101123.21;;;0.33;41.12
63339;BME280;47485;51.378;-1.342;2023-02-01T02:24:28;101129.64;;;0.71;41.58
63339;BME280;47485;51.378;-1.342;2023-02-01T02:27:07;101125.86;;;-0.93;43.75
63339;BME280;47485;51.378;-1.342;2023-02-01T02:29:55;101125.89;;;-0.80;44.71
63339;BME280;47485;51.378;-1.342;2023-02-01T02:33:02;101115.97;;;-0.91;42.38
63339;BME280;47485;51.378;-1.342;2023-02-01T02:35:40;101110.72;;;-0.47;43.55
63339;BME280;47485;51.378;-1.342;2023-02-01T02:38:17;101110.21;;;-1.85;44.97
63339;BME280;47485;51.378;-1.342;2023-02-01T02:40:55;101111.97;;;-1.80;44.22
63339;BME280;47485;51.378;-1.342;2023-02-01T02:43:33;101112.01;;;-1.62;44.75
63339;BME280;47485;51.378;-1.342;2023-02-01T02:46:05;101105.39;;;-0.43;42.74
63339;BME280;47485;51.378;-1.342;2023-02-01T02:48:37;101113.48;;;-0.62;43.33
63339;BME280;47485;51.378;-1.342;2023-02-01T02:51:12;101108.91;;;-1.76;44.39
63339;BME280;47485;51.378;-1.342;2023-02-01T02:53:46;101108.02;;;-1.87;45.30
63339;BME280;47485;51.378;-1.342;2023-02-01T02:56:17;101115.81;;;-0.64;44.56
63339;BME280;47485;51.378;-1.342;2023-02-01T02:58:46;101112.39;;;-0.80;46.40
63339;BME280;47485;51.378;-1.342;2023-02-01T03:01:15;101111.05;;;-2.28;46.99
63339;BME280;47485;51.378;-1.342;2023-02-01T03:03:43;101105.20;;;-1.14;44.37
63339;BME280;47485;51.378;-1.342;2023-02-01T03:06:13;101101.23;;;-0.17;44.55
63339;BME280;47485;51.378;-1.342;2023-02-01T03:08:41;101099.39;;;-0.09;43.76
63339;BME280;47485;51.378;-1.342;2023-02-01T03:11:09;101097.94;;;0.04;43.48
63339;BME280;47485;51.378;-1.342;2023-02-01T03:13:42;101104.32;;;0.07;45.25
63339;BME280;47485;51.378;-1.342;2023-02-01T03:16:15;101104.07;;;-0.27;43.91
63339;BME280;47485;51.378;-1.342;2023-02-01T03:18:50;101104.27;;;0.14;42.33
63339;BME280;47485;51.378;-1.342;2023-02-01T03:21:21;101099.82;;;-0.31;43.19
63339;BME280;47485;51.378;-1.342;2023-02-01T03:23:51;101099.44;;;-0.12;43.42
63339;BME280;47485;51.378;-1.342;2023-02-01T03:26:20;101103.70;;;-1.06;44.90
63339;BME280;47485;51.378;-1.342;2023-02-01T03:28:54;101096.04;;;-0.90;45.65
63339;BME280;47485;51.378;-1.342;2023-02-01T03:31:22;101092.86;;;-0.67;44.84
63339;BME280;47485;51.378;-1.342;2023-02-01T03:33:50;101087.72;;;0.21;43.27
63339;BME280;47485;51.378;-1.342;2023-02-01T03:36:23;101080.27;;;0.58;42.78
63339;BME280;47485;51.378;-1.342;2023-02-01T03:38:57;101085.89;;;-1.10;45.92
63339;BME280;47485;51.378;-1.342;2023-02-01T03:41:28;101091.14;;;-0.30;43.36
63339;BME280;47485;51.378;-1.342;2023-02-01T03:44:06;101086.59;;;-0.43;43.76
63339;BME280;47485;51.378;-1.342;2023-02-01T03:46:39;101081.05;;;-0.55;43.88
63339;BME280;47485;51.378;-1.342;2023-02-01T03:49:11;101081.74;;;0.34;42.71
63339;BME280;47485;51.378;-1.342;2023-02-01T03:51:41;101076.76;;;1.69;41.17
63339;BME280;47485;51.378;-1.342;2023-02-01T03:54:13;101082.53;;;-0.44;41.61
63339;BME280;47485;51.378;-1.342;2023-02-01T03:56:43;101072.76;;;-0.04;43.38
63339;BME280;47485;51.378;-1.342;2023-02-01T03:59:12;101076.62;;;-0.25;42.82
63339;BME280;47485;51.378;-1.342;2023-02-01T04:01:39;101076.68;;;-0.59;42.48
63339;BME280;47485;51.378;-1.342;2023-02-01T04:04:06;101074.12;;;-0.89;43.19
63339;BME280;47485;51.378;-1.342;2023-02-01T04:06:34;101078.42;;;0.73;42.04
63339;BME280;47485;51.378;-1.342;2023-02-01T04:09:01;101084.88;;;-0.48;44.09
63339;BME280;47485;51.378;-1.342;2023-02-01T04:11:28;101082.55;;;0.56;42.82
63339;BME280;47485;51.378;-1.342;2023-02-01T04:13:55;101077.32;;;0.33;41.88
63339;BME280;47485;51.378;-1.342;2023-02-01T04:16:22;101070.82;;;-0.44;41.97
63339;BME280;47485;51.378;-1.342;2023-02-01T04:18:49;101074.02;;;1.02;39.99
63339;BME280;47485;51.378;-1.342;2023-02-01T04:21:17;101071.93;;;1.78;40.50
63339;BME280;47485;51.378;-1.342;2023-02-01T04:23:44;101063.88;;;0.10;41.29
63339;BME280;47485;51.378;-1.342;2023-02-01T04:26:11;101068.39;;;-0.82;42.37
63339;BME280;47485;51.378;-1.342;2023-02-01T04:28:38;101068.02;;;-1.44;44.10
63339;BME280;47485;51.378;-1.342;2023-02-01T04:31:05;101062.56;;;-1.26;44.04
63339;BME280;47485;51.378;-1.342;2023-02-01T04:33:32;101066.00;;;-1.01;43.88
63339;BME280;47485;51.378;-1.342;2023-02-01T04:35:59;101064.38;;;1.10;40.93
63339;BME280;47485;51.378;-1.342;2023-02-01T04:38:26;101074.70;;;-0.29;42.29
63339;BME280;47485;51.378;-1.342;2023-02-01T04:40:53;101073.52;;;0.03;42.15
63339;BME280;47485;51.378;-1.342;2023-02-01T04:43:19;101081.94;;;-0.66;42.77
63339;BME280;47485;51.378;-1.342;2023-02-01T04:45:47;101086.89;;;-0.04;42.71
63339;BME280;47485;51.378;-1.342;2023-02-01T04:48:16;101086.44;;;-0.24;42.86
63339;BME280;47485;51.378;-1.342;2023-02-01T04:50:43;101084.47;;;-0.53;43.87
63339;BME280;47485;51.378;-1.342;2023-02-01T04:53:10;101089.12;;;0.74;43.59
63339;BME280;47485;51.378;-1.342;2023-02-01T04:55:37;101094.07;;;-0.72;44.12
63339;BME280;47485;51.378;-1.342;2023-02-01T04:58:04;101091.93;;;-0.79;44.42
63339;BME280;47485;51.378;-1.342;2023-02-01T05:00:31;101097.08;;;-0.76;42.64
63339;BME280;47485;51.378;-1.342;2023-02-01T05:02:58;101093.66;;;-0.15;42.92
63339;BME280;47485;51.378;-1.342;2023-02-01T05:05:25;101091.53;;;-0.72;43.31
63339;BME280;47485;51.378;-1.342;2023-02-01T05:07:52;101089.02;;;1.88;42.47
63339;BME280;47485;51.378;-1.342;2023-02-01T05:10:20;101083.78;;;0.75;42.54
63339;BME280;47485;51.378;-1.342;2023-02-01T05:12:47;101086.28;;;0.26;41.97
63339;BME280;47485;51.378;-1.342;2023-02-01T05:15:15;101082.51;;;1.14;42.24
63339;BME280;47485;51.378;-1.342;2023-02-01T05:17:41;101079.17;;;0.47;42.30
63339;BME280;47485;51.378;-1.342;2023-02-01T05:20:10;101078.16;;;1.41;40.83
63339;BME280;47485;51.378;-1.342;2023-02-01T05:22:36;101067.42;;;-0.57;41.80
63339;BME280;47485;51.378;-1.342;2023-02-01T05:25:04;101064.79;;;0.47;43.00
63339;BME280;47485;51.378;-1.342;2023-02-01T05:27:31;101067.85;;;-0.72;43.27
63339;BME280;47485;51.378;-1.342;2023-02-01T05:29:57;101079.50;;;0.15;44.20
63339;BME280;47485;51.378;-1.342;2023-02-01T05:32:24;101082.39;;;-0.27;43.15
63339;BME280;47485;51.378;-1.342;2023-02-01T05:34:51;101078.45;;;-0.84;44.13
63339;BME280;47485;51.378;-1.342;2023-02-01T05:37:18;101078.71;;;-0.37;44.94
63339;BME280;47485;51.378;-1.342;2023-02-01T05:39:45;101078.74;;;-0.64;44.72
63339;BME280;47485;51.378;-1.342;2023-02-01T05:42:11;101084.39;;;-1.38;46.46
63339;BME280;47485;51.378;-1.342;2023-02-01T05:44:38;101091.32;;;-0.41;46.01
63339;BME280;47485;51.378;-1.342;2023-02-01T05:47:05;101093.40;;;-1.18;46.38
63339;BME280;47485;51.378;-1.342;2023-02-01T05:49:32;101097.76;;;-2.01;45.84
63339;BME280;47485;51.378;-1.342;2023-02-01T05:51:59;101092.81;;;-1.32;44.97
63339;BME280;47485;51.378;-1.342;2023-02-01T05:54:26;101099.16;;;-0.59;46.69
63339;BME280;47485;51.378;-1.342;2023-02-01T05:56:53;101088.83;;;-0.72;47.03
63339;BME280;47485;51.378;-1.342;2023-02-01T05:59:20;101086.19;;;-0.90;46.70
63339;BME280;47485;51.378;-1.342;2023-02-01T06:01:47;101089.16;;;-0.53;46.92
63339;BME280;47485;51.378;-1.342;2023-02-01T06:04:14;101084.81;;;-0.24;46.82
63339;BME280;47485;51.378;-1.342;2023-02-01T06:06:40;101080.33;;;-1.03;45.25
63339;BME280;47485;51.378;-1.342;2023-02-01T06:09:07;101070.60;;;-0.89;44.81
63339;BME280;47485;51.378;-1.342;2023-02-01T06:11:34;101064.15;;;-0.20;45.90
63339;BME280;47485;51.378;-1.342;2023-02-01T06:14:01;101064.53;;;-0.10;46.71
63339;BME280;47485;51.378;-1.342;2023-02-01T06:16:28;101061.09;;;-0.45;45.77
63339;BME280;47485;51.378;-1.342;2023-02-01T06:18:55;101055.35;;;0.51;44.90
63339;BME280;47485;51.378;-1.342;2023-02-01T06:21:21;101047.02;;;0.59;44.49
63339;BME280;47485;51.378;-1.342;2023-02-01T06:23:48;101038.11;;;0.72;43.47
63339;BME280;47485;51.378;-1.342;2023-02-01T06:26:17;101038.22;;;0.09;44.56
63339;BME280;47485;51.378;-1.342;2023-02-01T06:28:43;101035.24;;;-1.25;46.85
63339;BME280;47485;51.378;-1.342;2023-02-01T06:31:10;101032.14;;;-2.47;47.86
63339;BME280;47485;51.378;-1.342;2023-02-01T06:33:37;101028.14;;;-0.91;45.53
63339;BME280;47485;51.378;-1.342;2023-02-01T06:36:06;101039.92;;;0.32;45.06
63339;BME280;47485;51.378;-1.342;2023-02-01T06:38:34;101046.35;;;-1.07;46.92
63339;BME280;47485;51.378;-1.342;2023-02-01T06:41:01;101052.00;;;-1.77;47.22
63339;BME280;47485;51.378;-1.342;2023-02-01T06:43:28;101057.26;;;0.51;46.27
63339;BME280;47485;51.378;-1.342;2023-02-01T06:45:59;101062.00;;;-0.08;45.67
63339;BME280;47485;51.378;-1.342;2023-02-01T06:48:26;101066.39;;;0.07;45.43
63339;BME280;47485;51.378;-1.342;2023-02-01T06:50:53;101067.97;;;-0.97;45.80
63339;BME280;47485;51.378;-1.342;2023-02-01T06:53:20;101065.01;;;-0.17;44.87
63339;BME280;47485;51.378;-1.342;2023-02-01T06:55:55;101067.26;;;-0.31;46.47
63339;BME280;47485;51.378;-1.342;2023-02-01T06:58:23;101075.97;;;-0.50;46.72
63339;BME280;47485;51.378;-1.342;2023-02-01T07:00:50;101077.97;;;-0.83;46.58
63339;BME280;47485;51.378;-1.342;2023-02-01T07:03:17;101080.55;;;-0.76;47.93
63339;BME280;47485;51.378;-1.342;2023-02-01T07:05:44;101081.02;;;-0.62;47.12
63339;BME280;47485;51.378;-1.342;2023-02-01T07:08:12;101080.29;;;-0.18;46.44
63339;BME280;47485;51.378;-1.342;2023-02-01T07:10:38;101080.25;;;-0.80;44.62
63339;BME280;47485;51.378;-1.342;2023-02-01T07:13:05;101079.07;;;0.50;45.94
63339;BME280;47485;51.378;-1.342;2023-02-01T07:15:32;101088.17;;;0.14;45.97
63339;BME280;47485;51.378;-1.342;2023-02-01T07:17:58;101079.91;;;-1.32;46.97
63339;BME280;47485;51.378;-1.342;2023-02-01T07:20:25;101082.65;;;-1.08;46.12
63339;BME280;47485;51.378;-1.342;2023-02-01T07:22:55;101084.47;;;-0.69;45.00
63339;BME280;47485;51.378;-1.342;2023-02-01T07:25:22;101085.22;;;-0.90;45.73
63339;BME280;47485;51.378;-1.342;2023-02-01T07:27:49;101086.25;;;-1.40;48.14
63339;BME280;47485;51.378;-1.342;2023-02-01T07:30:17;101083.42;;;-0.66;48.03
63339;BME280;47485;51.378;-1.342;2023-02-01T07:32:44;101084.06;;;-0.10;46.19
63339;BME280;47485;51.378;-1.342;2023-02-01T07:35:11;101081.50;;;-1.32;46.22
63339;BME280;47485;51.378;-1.342;2023-02-01T07:37:38;101089.14;;;-1.41;44.66
63339;BME280;47485;51.378;-1.342;2023-02-01T07:40:06;101093.14;;;-0.13;44.43
63339;BME280;47485;51.378;-1.342;2023-02-01T07:42:34;101097.41;;;-0.90;45.28
63339;BME280;47485;51.378;-1.342;2023-02-01T07:45:01;101102.88;;;0.15;43.58
63339;BME280;47485;51.378;-1.342;2023-02-01T07:47:28;101107.71;;;-0.98;44.26
63339;BME280;47485;51.378;-1.342;2023-02-01T07:49:55;101105.03;;;0.86;43.67
63339;BME280;47485;51.378;-1.342;2023-02-01T07:52:21;101105.45;;;-0.66;43.81
63339;BME280;47485;51.378;-1.342;2023-02-01T07:54:48;101106.06;;;0.77;43.26
63339;BME280;47485;51.378;-1.342;2023-02-01T07:57:16;101103.92;;;-0.66;44.93
63339;BME280;47485;51.378;-1.342;2023-02-01T07:59:43;101103.37;;;1.09;43.80
63339;BME280;47485;51.378;-1.342;2023-02-01T08:02:09;101099.12;;;0.12;42.99
63339;BME280;47485;51.378;-1.342;2023-02-01T08:04:36;101107.15;;;0.11;44.73
63339;BME280;47485;51.378;-1.342;2023-02-01T08:07:03;101098.29;;;-0.68;45.37
63339;BME280;47485;51.378;-1.342;2023-02-01T08:09:30;101103.22;;;-1.38;45.03
63339;BME280;47485;51.378;-1.342;2023-02-01T08:11:57;101099.80;;;0.14;46.31
63339;BME280;47485;51.378;-1.342;2023-02-01T08:14:24;101102.01;;;-0.96;45.49
63339;BME280;47485;51.378;-1.342;2023-02-01T08:16:50;101102.38;;;-0.91;46.42
63339;BME280;47485;51.378;-1.342;2023-02-01T08:19:18;101104.62;;;-0.33;44.70
63339;BME280;47485;51.378;-1.342;2023-02-01T08:21:45;101102.60;;;-0.62;45.11
63339;BME280;47485;51.378;-1.342;2023-02-01T08:24:12;101096.93;;;0.01;43.78
63339;BME280;47485;51.378;-1.342;2023-02-01T08:26:39;101100.42;;;0.14;43.78
63339;BME280;47485;51.378;-1.342;2023-02-01T08:29:07;101106.71;;;0.91;43.62
63339;BME280;47485;51.378;-1.342;2023-02-01T08:31:34;101108.23;;;-0.55;43.29
63339;BME280;47485;51.378;-1.342;2023-02-01T08:34:02;101105.18;;;-0.62;43.75
63339;BME280;47485;51.378;-1.342;2023-02-01T08:36:29;101108.74;;;-0.47;44.39
63339;BME280;47485;51.378;-1.342;2023-02-01T08:38:56;101100.89;;;1.20;44.01
63339;BME280;47485;51.378;-1.342;2023-02-01T08:41:25;101112.49;;;-0.36;45.11
63339;BME280;47485;51.378;-1.342;2023-02-01T08:43:53;101119.23;;;-0.92;46.50
63339;BME280;47485;51.378;-1.342;2023-02-01T08:46:22;101122.12;;;-1.10;45.64
63339;BME280;47485;51.378;-1.342;2023-02-01T08:48:50;101120.67;;;0.28;43.47
63339;BME280;47485;51.378;-1.342;2023-02-01T08:51:20;101123.86;;;0.01;43.52
63339;BME280;47485;51.378;-1.342;2023-02-01T08:53:48;101135.62;;;0.31;43.95
63339;BME280;47485;51.378;-1.342;2023-02-01T08:56:18;101138.50;;;0.54;45.05
63339;BME280;47485;51.378;-1.342;2023-02-01T08:58:45;101142.25;;;-2.16;47.14
63339;BME280;47485;51.378;-1.342;2023-02-01T09:01:14;101146.90;;;-0.04;45.55
63339;BME280;47485;51.378;-1.342;2023-02-01T09:03:41;101159.59;;;-0.31;45.00
63339;BME280;47485;51.378;-1.342;2023-02-01T09:06:10;101159.84;;;-0.69;46.69
63339;BME280;47485;51.378;-1.342;2023-02-01T09:08:37;101157.91;;;-1.00;47.58
63339;BME280;47485;51.378;-1.342;2023-02-01T09:11:07;101151.63;;;-0.42;46.79
63339;BME280;47485;51.378;-1.342;2023-02-01T09:13:35;101156.52;;;-0.43;45.67
63339;BME280;47485;51.378;-1.342;2023-02-01T09:16:01;101151.25;;;-0.31;44.53
63339;BME280;47485;51.378;-1.342;2023-02-01T09:18:28;101151.54;;;-0.66;45.77
63339;BME280;47485;51.378;-1.342;2023-02-01T09:20:55;101152.22;;;-0.25;45.28
63339;BME280;47485;51.378;-1.342;2023-02-01T09:23:22;101153.69;;;0.69;44.89
63339;BME280;47485;51.378;-1.342;2023-02-01T09:25:49;101157.78;;;-0.37;44.31
63339;BME280;47485;51.378;-1.342;2023-02-01T09:28:17;101159.23;;;-0.15;43.58
63339;BME280;47485;51.378;-1.342;2023-02-01T09:30:44;101151.41;;;1.10;44.18
63339;BME280;47485;51.378;-1.342;2023-02-01T09:33:11;101147.46;;;0.58;43.86
63339;BME280;47485;51.378;-1.342;2023-02-01T09:35:38;101144.98;;;0.95;43.76
63339;BME280;47485;51.378;-1.342;2023-02-01T09:38:05;101146.13;;;0.65;43.98
63339;BME280;47485;51.378;-1.342;2023-02-01T09:40:34;101148.42;;;0.21;44.89
63339;BME280;47485;51.378;-1.342;2023-02-01T09:43:14;101148.81;;;0.82;46.08
63339;BME280;47485;51.378;-1.342;2023-02-01T09:45:51;101146.26;;;0.40;45.58
63339;BME280;47485;51.378;-1.342;2023-02-01T09:48:27;101149.34;;;0.61;44.59
63339;BME280;47485;51.378;-1.342;2023-02-01T09:50:57;101151.40;;;1.19;44.67
63339;BME280;47485;51.378;-1.342;2023-02-01T09:53:28;101149.46;;;2.06;42.97
63339;BME280;47485;51.378;-1.342;2023-02-01T09:56:02;101153.04;;;1.25;43.59
63339;BME280;47485;51.378;-1.342;2023-02-01T09:58:33;101152.68;;;0.59;44.69
63339;BME280;47485;51.378;-1.342;2023-02-01T10:01:04;101149.26;;;1.10;46.83
63339;BME280;47485;51.378;-1.342;2023-02-01T10:03:33;101154.54;;;-0.49;46.58
63339;BME280;47485;51.378;-1.342;2023-02-01T10:06:20;101155.73;;;0.75;46.41
63339;BME280;47485;51.378;-1.342;2023-02-01T10:09:02;101164.24;;;-0.40;48.09
63339;BME280;47485;51.378;-1.342;2023-02-01T10:11:44;101161.54;;;-0.77;47.00
63339;BME280;47485;51.378;-1.342;2023-02-01T10:14:24;101155.45;;;0.11;47.15
63339;BME280;47485;51.378;-1.342;2023-02-01T10:16:58;101157.38;;;1.03;46.10
63339;BME280;47485;51.378;-1.342;2023-02-01T10:19:39;101158.90;;;-0.07;45.26
63339;BME280;47485;51.378;-1.342;2023-02-01T10:22:17;101157.94;;;0.72;45.21
63339;BME280;47485;51.378;-1.342;2023-02-01T10:24:51;101154.51;;;-0.53;46.35
63339;BME280;47485;51.378;-1.342;2023-02-01T10:27:21;101154.93;;;-0.21;47.72
63339;BME280;47485;51.378;-1.342;2023-02-01T10:29:52;101155.63;;;-0.18;46.87
63339;BME280;47485;51.378;-1.342;2023-02-01T10:32:23;101158.01;;;0.99;43.86
63339;BME280;47485;51.378;-1.342;2023-02-01T10:34:55;101156.88;;;1.37;43.91
63339;BME280;47485;51.378;-1.342;2023-02-01T10:37:28;101156.98;;;1.17;44.36
63339;BME280;47485;51.378;-1.342;2023-02-01T10:39:56;101156.51;;;1.23;44.27
63339;BME280;47485;51.378;-1.342;2023-02-01T10:42:27;101157.37;;;1.16;44.13
63339;BME280;47485;51.378;-1.342;2023-02-01T10:44:57;101155.62;;;1.07;44.13
63339;BME280;47485;51.378;-1.342;2023-02-01T10:47:26;101159.73;;;2.12;43.77
63339;BME280;47485;51.378;-1.342;2023-02-01T10:50:02;101162.40;;;0.61;46.55
63339;BME280;47485;51.378;-1.342;2023-02-01T10:52:37;101156.09;;;1.51;45.46
63339;BME280;47485;51.378;-1.342;2023-02-01T10:55:39;101167.71;;;2.02;44.68
63339;BME280;47485;51.378;-1.342;2023-02-01T10:58:15;101159.36;;;2.51;44.08
63339;BME280;47485;51.378;-1.342;2023-02-01T11:00:46;101158.16;;;1.62;44.29
63339;BME280;47485;51.378;-1.342;2023-02-01T11:03:33;101149.20;;;-0.02;45.17
63339;BME280;47485;51.378;-1.342;2023-02-01T11:06:01;101155.94;;;1.54;42.67
63339;BME280;47485;51.378;-1.342;2023-02-01T11:08:29;101151.42;;;2.67;42.52
63339;BME280;47485;51.378;-1.342;2023-02-01T11:10:59;101166.89;;;0.79;42.09
63339;BME280;47485;51.378;-1.342;2023-02-01T11:13:29;101167.79;;;0.66;43.37
63339;BME280;47485;51.378;-1.342;2023-02-01T11:15:57;101176.79;;;0.91;43.61
63339;BME280;47485;51.378;-1.342;2023-02-01T11:18:27;101173.11;;;1.67;41.21
63339;BME280;47485;51.378;-1.342;2023-02-01T11:20:54;101174.84;;;1.45;41.20
63339;BME280;47485;51.378;-1.342;2023-02-01T11:23:24;101176.67;;;3.23;42.01
63339;BME280;47485;51.378;-1.342;2023-02-01T11:25:54;101168.14;;;2.00;42.15
63339;BME280;47485;51.378;-1.342;2023-02-01T11:28:23;101176.04;;;1.02;44.05
63339;BME280;47485;51.378;-1.342;2023-02-01T11:30:54;101173.11;;;1.00;44.83
63339;BME280;47485;51.378;-1.342;2023-02-01T11:33:25;101166.19;;;1.77;43.92
63339;BME280;47485;51.378;-1.342;2023-02-01T11:35:53;101157.38;;;2.70;40.16
63339;BME280;47485;51.378;-1.342;2023-02-01T11:38:23;101163.92;;;2.91;39.95
63339;BME280;47485;51.378;-1.342;2023-02-01T11:40:53;101167.57;;;1.54;41.77
63339;BME280;47485;51.378;-1.342;2023-02-01T11:43:23;101167.85;;;0.95;42.92
63339;BME280;47485;51.378;-1.342;2023-02-01T11:45:56;101174.81;;;2.02;42.94
63339;BME280;47485;51.378;-1.342;2023-02-01T11:48:25;101167.45;;;1.39;42.37
63339;BME280;47485;51.378;-1.342;2023-02-01T11:51:05;101165.63;;;2.88;40.42
63339;BME280;47485;51.378;-1.342;2023-02-01T11:53:53;101159.75;;;2.48;41.76
63339;BME280;47485;51.378;-1.342;2023-02-01T11:56:29;101155.85;;;2.17;42.78
63339;BME280;47485;51.378;-1.342;2023-02-01T11:59:08;101154.59;;;1.04;44.36
63339;BME280;47485;51.378;-1.342;2023-02-01T12:01:52;101150.10;;;2.18;42.30
63339;BME280;47485;51.378;-1.342;2023-02-01T12:04:56;101153.61;;;2.62;41.71
63339;BME280;47485;51.378;-1.342;2023-02-01T12:07:38;101153.93;;;1.64;41.90
63339;BME280;47485;51.378;-1.342;2023-02-01T12:10:22;101153.74;;;1.98;42.25
63339;BME280;47485;51.378;-1.342;2023-02-01T12:12:58;101154.32;;;1.94;42.92
63339;BME280;47485;51.378;-1.342;2023-02-01T12:15:40;101162.62;;;2.19;41.16
63339;BME280;47485;51.378;-1.342;2023-02-01T12:18:27;101154.34;;;2.28;40.85
63339;BME280;47485;51.378;-1.342;2023-02-01T12:21:06;101155.20;;;2.96;42.19
63339;BME280;47485;51.378;-1.342;2023-02-01T12:23:46;101144.12;;;2.89;42.46
63339;BME280;47485;51.378;-1.342;2023-02-01T12:26:34;101149.00;;;1.75;42.37
63339;BME280;47485;51.378;-1.342;2023-02-01T12:29:16;101145.30;;;1.22;41.66
63339;BME280;47485;51.378;-1.342;2023-02-01T12:31:55;101139.83;;;1.00;42.20
63339;BME280;47485;51.378;-1.342;2023-02-01T12:34:59;101138.16;;;1.91;42.06
63339;BME280;47485;51.378;-1.342;2023-02-01T12:37:38;101133.40;;;2.69;39.60
63339;BME280;47485;51.378;-1.342;2023-02-01T12:40:20;101131.00;;;3.98;38.72
63339;BME280;47485;51.378;-1.342;2023-02-01T12:42:53;101137.97;;;2.96;39.89
63339;BME280;47485;51.378;-1.342;2023-02-01T12:45:28;101132.67;;;2.38;40.55
63339;BME280;47485;51.378;-1.342;2023-02-01T12:48:00;101135.32;;;2.67;42.77
63339;BME280;47485;51.378;-1.342;2023-02-01T12:50:35;101128.09;;;1.72;42.49
63339;BME280;47485;51.378;-1.342;2023-02-01T12:53:12;101127.34;;;1.67;41.11
63339;BME280;47485;51.378;-1.342;2023-02-01T12:55:45;101119.57;;;1.47;41.21
63339;BME280;47485;51.378;-1.342;2023-02-01T12:58:17;101116.86;;;2.88;40.33
63339;BME280;47485;51.378;-1.342;2023-02-01T13:00:49;101108.44;;;2.23;40.76
63339;BME280;47485;51.378;-1.342;2023-02-01T13:03:28;101103.23;;;2.56;40.81